sensor_id;sensor_type;location;lat;lon;timestamp;temperature;humidity
43810;DHT22;29440;48.208;11.162;2023-06-14T00:01:47;13.10;84.30
43810;DHT22;29440;48.208;11.162;2023-06-14T00:04:14;13.10;83.90
43810;DHT22;29440;48.208;11.162;2023-06-14T00:06:42;13.00;87.10
43810;DHT22;29440;48.208;11.162;2023-06-14T00:09:07;13.00;88.40
43810;DHT22;29440;48.208;11.162;2023-06-14T00:11:34;13.00;85.20
43810;DHT22;29440;48.208;11.162;2023-06-14T00:13:59;12.90;84.50
43810;DHT22;29440;48.208;11.162;2023-06-14T00:16:25;12.90;88.90
43810;DHT22;29440;48.208;11.162;2023-06-14T00:18:50;12.80;85.80
43810;DHT22;29440;48.208;11.162;2023-06-14T00:21:18;12.80;87.20
43810;DHT22;29440;48.208;11.162;2023-06-14T00:23:44;12.80;88.90
43810;DHT22;29440;48.208;11.162;2023-06-14T00:26:10;12.80;85.80
43810;DHT22;29440;48.208;11.162;2023-06-14T00:28:35;12.70;86.70
43810;DHT22;29440;48.208;11.162;2023-06-14T00:31:01;12.70;88.00
43810;DHT22;29440;48.208;11.162;2023-06-14T00:33:26;12.60;91.10
43810;DHT22;29440;48.208;11.162;2023-06-14T00:35:52;12.50;91.80
43810;DHT22;29440;48.208;11.162;2023-06-14T00:38:20;12.40;92.20
43810;DHT22;29440;48.208;11.162;2023-06-14T00:40:46;12.30;90.50
43810;DHT22;29440;48.208;11.162;2023-06-14T00:43:12;12.30;89.80
43810;DHT22;29440;48.208;11.162;2023-06-14T00:45:38;12.30;88.70
43810;DHT22;29440;48.208;11.162;2023-06-14T00:48:04;12.20;90.40
43810;DHT22;29440;48.208;11.162;2023-06-14T00:50:31;12.20;90.20
43810;DHT22;29440;48.208;11.162;2023-06-14T00:52:59;12.20;90.50
43810;DHT22;29440;48.208;11.162;2023-06-14T00:55:25;12.20;90.00
43810;DHT22;29440;48.208;11.162;2023-06-14T00:57:51;12.20;90.40
43810;DHT22;29440;48.208;11.162;2023-06-14T01:00:17;12.20;90.20
43810;DHT22;29440;48.208;11.162;2023-06-14T01:02:42;12.20;90.00
43810;DHT22;29440;48.208;11.162;2023-06-14T01:05:08;12.20;90.60
43810;DHT22;29440;48.208;11.162;2023-06-14T01:10:52;12.10;90.80
43810;DHT22;29440;48.208;11.162;2023-06-14T01:13:32;12.00;93.00
43810;DHT22;29440;48.208;11.162;2023-06-14T01:15:59;12.00;91.20
43810;DHT22;29440;48.208;11.162;2023-06-14T01:18:24;12.00;92.30
43810;DHT22;29440;48.208;11.162;2023-06-14T01:20:51;11.90;92.90
43810;DHT22;29440;48.208;11.162;2023-06-14T01:23:21;11.80;91.60
43810;DHT22;29440;48.208;11.162;2023-06-14T01:25:48;11.80;91.50
43810;DHT22;29440;48.208;11.162;2023-06-14T01:28:19;11.80;91.30
43810;DHT22;29440;48.208;11.162;2023-06-14T01:30:47;11.80;92.20
43810;DHT22;29440;48.208;11.162;2023-06-14T01:33:23;11.80;91.30
43810;DHT22;29440;48.208;11.162;2023-06-14T01:35:53;11.80;91.80
43810;DHT22;29440;48.208;11.162;2023-06-14T01:38:22;11.70;91.40
43810;DHT22;29440;48.208;11.162;2023-06-14T01:40:49;11.70;91.80
43810;DHT22;29440;48.208;11.162;2023-06-14T01:43:18;11.60;91.30
43810;DHT22;29440;48.208;11.162;2023-06-14T01:45:45;11.60;90.80
43810;DHT22;29440;48.208;11.162;2023-06-14T01:48:12;11.60;91.30
43810;DHT22;29440;48.208;11.162;2023-06-14T01:50:38;11.60;90.90
43810;DHT22;29440;48.208;11.162;2023-06-14T01:53:07;11.60;91.60
43810;DHT22;29440;48.208;11.162;2023-06-14T01:55:33;11.60;91.20
43810;DHT22;29440;48.208;11.162;2023-06-14T01:58:03;11.50;91.10
43810;DHT22;29440;48.208;11.162;2023-06-14T02:00:28;11.50;92.00
43810;DHT22;29440;48.208;11.162;2023-06-14T02:02:54;11.40;92.90
43810;DHT22;29440;48.208;11.162;2023-06-14T02:05:19;11.40;92.50
43810;DHT22;29440;48.208;11.162;2023-06-14T02:07:46;11.40;93.00
43810;DHT22;29440;48.208;11.162;2023-06-14T02:10:11;11.30;93.50
43810;DHT22;29440;48.208;11.162;2023-06-14T02:12:37;11.30;93.50
43810;DHT22;29440;48.208;11.162;2023-06-14T02:15:03;11.20;92.90
43810;DHT22;29440;48.208;11.162;2023-06-14T02:17:29;11.20;93.40
43810;DHT22;29440;48.208;11.162;2023-06-14T02:19:55;11.20;92.80
43810;DHT22;29440;48.208;11.162;2023-06-14T02:22:22;11.20;92.90
43810;DHT22;29440;48.208;11.162;2023-06-14T02:24:48;11.20;93.20
43810;DHT22;29440;48.208;11.162;2023-06-14T02:27:14;11.20;92.60
43810;DHT22;29440;48.208;11.162;2023-06-14T02:29:39;11.20;93.10
43810;DHT22;29440;48.208;11.162;2023-06-14T02:32:06;11.20;92.50
43810;DHT22;29440;48.208;11.162;2023-06-14T02:34:33;11.10;92.30
43810;DHT22;29440;48.208;11.162;2023-06-14T02:36:59;11.10;92.10
43810;DHT22;29440;48.208;11.162;2023-06-14T02:39:25;11.00;94.10
43810;DHT22;29440;48.208;11.162;2023-06-14T02:41:50;11.10;92.60
43810;DHT22;29440;48.208;11.162;2023-06-14T02:44:18;11.00;94.00
43810;DHT22;29440;48.208;11.162;2023-06-14T02:46:43;11.00;92.80
43810;DHT22;29440;48.208;11.162;2023-06-14T02:49:10;11.00;93.10
43810;DHT22;29440;48.208;11.162;2023-06-14T02:51:35;10.90;93.90
43810;DHT22;29440;48.208;11.162;2023-06-14T02:54:01;10.90;95.20
43810;DHT22;29440;48.208;11.162;2023-06-14T02:56:26;10.80;94.50
43810;DHT22;29440;48.208;11.162;2023-06-14T02:58:53;10.80;93.20
43810;DHT22;29440;48.208;11.162;2023-06-14T03:01:18;10.80;93.30
43810;DHT22;29440;48.208;11.162;2023-06-14T03:06:22;10.70;93.70
43810;DHT22;29440;48.208;11.162;2023-06-14T03:08:50;10.70;93.50
43810;DHT22;29440;48.208;11.162;2023-06-14T03:11:16;10.60;94.70
43810;DHT22;29440;48.208;11.162;2023-06-14T03:13:45;10.70;93.90
43810;DHT22;29440;48.208;11.162;2023-06-14T03:16:12;10.60;93.30
43810;DHT22;29440;48.208;11.162;2023-06-14T03:18:38;10.60;94.10
43810;DHT22;29440;48.208;11.162;2023-06-14T03:21:03;10.50;94.10
43810;DHT22;29440;48.208;11.162;2023-06-14T03:23:30;10.50;95.10
43810;DHT22;29440;48.208;11.162;2023-06-14T03:25:56;10.60;96.70
43810;DHT22;29440;48.208;11.162;2023-06-14T03:28:22;10.50;95.00
43810;DHT22;29440;48.208;11.162;2023-06-14T03:30:47;10.40;95.50
43810;DHT22;29440;48.208;11.162;2023-06-14T03:33:13;10.50;97.80
43810;DHT22;29440;48.208;11.162;2023-06-14T03:35:39;10.30;97.80
43810;DHT22;29440;48.208;11.162;2023-06-14T03:38:05;10.30;98.30
43810;DHT22;29440;48.208;11.162;2023-06-14T03:40:30;10.20;98.40
43810;DHT22;29440;48.208;11.162;2023-06-14T03:42:56;10.30;97.60
43810;DHT22;29440;48.208;11.162;2023-06-14T03:45:22;10.30;98.30
43810;DHT22;29440;48.208;11.162;2023-06-14T03:47:47;10.30;98.10
43810;DHT22;29440;48.208;11.162;2023-06-14T03:50:13;10.20;96.80
43810;DHT22;29440;48.208;11.162;2023-06-14T03:52:39;10.30;98.40
43810;DHT22;29440;48.208;11.162;2023-06-14T03:55:05;10.30;99.40
43810;DHT22;29440;48.208;11.162;2023-06-14T03:57:31;10.20;99.90
43810;DHT22;29440;48.208;11.162;2023-06-14T03:59:56;10.20;98.70
43810;DHT22;29440;48.208;11.162;2023-06-14T04:02:22;10.20;98.10
43810;DHT22;29440;48.208;11.162;2023-06-14T04:04:48;10.20;97.40
43810;DHT22;29440;48.208;11.162;2023-06-14T04:07:14;10.40;98.20
43810;DHT22;29440;48.208;11.162;2023-06-14T04:09:41;10.40;98.10
43810;DHT22;29440;48.208;11.162;2023-06-14T04:12:07;10.60;97.00
43810;DHT22;29440;48.208;11.162;2023-06-14T04:14:34;10.50;96.70
43810;DHT22;29440;48.208;11.162;2023-06-14T04:17:00;10.60;96.70
43810;DHT22;29440;48.208;11.162;2023-06-14T04:19:26;10.70;97.20
43810;DHT22;29440;48.208;11.162;2023-06-14T04:21:51;10.80;97.00
43810;DHT22;29440;48.208;11.162;2023-06-14T04:24:17;10.80;98.00
43810;DHT22;29440;48.208;11.162;2023-06-14T04:26:44;10.80;97.00
43810;DHT22;29440;48.208;11.162;2023-06-14T04:29:14;10.90;96.90
43810;DHT22;29440;48.208;11.162;2023-06-14T04:31:42;11.00;96.60
43810;DHT22;29440;48.208;11.162;2023-06-14T04:34:08;11.00;96.00
43810;DHT22;29440;48.208;11.162;2023-06-14T04:36:34;11.10;96.50
43810;DHT22;29440;48.208;11.162;2023-06-14T04:39:03;11.20;96.00
43810;DHT22;29440;48.208;11.162;2023-06-14T04:41:30;11.30;96.70
43810;DHT22;29440;48.208;11.162;2023-06-14T04:43:59;11.40;96.20
43810;DHT22;29440;48.208;11.162;2023-06-14T04:46:30;11.50;97.80
43810;DHT22;29440;48.208;11.162;2023-06-14T04:48:57;11.70;96.80
43810;DHT22;29440;48.208;11.162;2023-06-14T04:51:28;11.80;97.40
43810;DHT22;29440;48.208;11.162;2023-06-14T04:53:58;11.80;97.30
43810;DHT22;29440;48.208;11.162;2023-06-14T04:56:24;11.90;97.00
43810;DHT22;29440;48.208;11.162;2023-06-14T04:58:55;12.10;97.40
43810;DHT22;29440;48.208;11.162;2023-06-14T05:01:22;12.20;97.60
43810;DHT22;29440;48.208;11.162;2023-06-14T05:03:49;12.30;97.00
43810;DHT22;29440;48.208;11.162;2023-06-14T05:06:15;12.40;97.60
43810;DHT22;29440;48.208;11.162;2023-06-14T05:08:41;12.50;97.10
43810;DHT22;29440;48.208;11.162;2023-06-14T05:11:07;12.70;97.20
43810;DHT22;29440;48.208;11.162;2023-06-14T05:13:32;13.00;96.40
43810;DHT22;29440;48.208;11.162;2023-06-14T05:15:59;13.20;95.90
43810;DHT22;29440;48.208;11.162;2023-06-14T05:18:26;13.40;95.70
43810;DHT22;29440;48.208;11.162;2023-06-14T05:20:51;13.50;95.90
43810;DHT22;29440;48.208;11.162;2023-06-14T05:23:17;13.50;95.50
43810;DHT22;29440;48.208;11.162;2023-06-14T05:25:44;13.60;95.70
43810;DHT22;29440;48.208;11.162;2023-06-14T05:28:10;13.50;95.80
43810;DHT22;29440;48.208;11.162;2023-06-14T05:30:38;13.50;95.40
43810;DHT22;29440;48.208;11.162;2023-06-14T05:33:04;13.60;95.30
43810;DHT22;29440;48.208;11.162;2023-06-14T05:35:29;13.60;95.80
43810;DHT22;29440;48.208;11.162;2023-06-14T05:37:55;13.70;96.50
43810;DHT22;29440;48.208;11.162;2023-06-14T05:40:20;13.70;95.80
43810;DHT22;29440;48.208;11.162;2023-06-14T05:42:46;13.80;95.70
43810;DHT22;29440;48.208;11.162;2023-06-14T05:45:12;13.90;96.40
43810;DHT22;29440;48.208;11.162;2023-06-14T05:47:38;14.10;95.70
43810;DHT22;29440;48.208;11.162;2023-06-14T05:50:04;14.50;96.00
43810;DHT22;29440;48.208;11.162;2023-06-14T05:52:30;15.40;95.60
43810;DHT22;29440;48.208;11.162;2023-06-14T05:54:56;16.60;93.90
43810;DHT22;29440;48.208;11.162;2023-06-14T05:57:22;18.00;91.80
43810;DHT22;29440;48.208;11.162;2023-06-14T05:59:48;19.60;90.30
43810;DHT22;29440;48.208;11.162;2023-06-14T06:02:13;20.80;84.90
43810;DHT22;29440;48.208;11.162;2023-06-14T06:04:39;21.90;78.70
43810;DHT22;29440;48.208;11.162;2023-06-14T06:07:04;23.00;76.60
43810;DHT22;29440;48.208;11.162;2023-06-14T06:09:30;23.80;71.50
43810;DHT22;29440;48.208;11.162;2023-06-14T06:11:56;24.50;70.40
43810;DHT22;29440;48.208;11.162;2023-06-14T06:14:21;25.40;66.50
43810;DHT22;29440;48.208;11.162;2023-06-14T06:16:50;26.00;64.70
43810;DHT22;29440;48.208;11.162;2023-06-14T06:19:18;26.50;61.70
43810;DHT22;29440;48.208;11.162;2023-06-14T06:21:43;26.80;60.60
43810;DHT22;29440;48.208;11.162;2023-06-14T06:24:09;27.50;59.70
43810;DHT22;29440;48.208;11.162;2023-06-14T06:26:35;28.20;58.50
43810;DHT22;29440;48.208;11.162;2023-06-14T06:29:00;28.90;57.10
43810;DHT22;29440;48.208;11.162;2023-06-14T06:31:26;29.10;56.60
43810;DHT22;29440;48.208;11.162;2023-06-14T06:33:53;29.50;54.60
43810;DHT22;29440;48.208;11.162;2023-06-14T06:36:20;29.90;55.20
43810;DHT22;29440;48.208;11.162;2023-06-14T06:38:47;30.30;53.90
43810;DHT22;29440;48.208;11.162;2023-06-14T06:41:13;30.20;52.90
43810;DHT22;29440;48.208;11.162;2023-06-14T06:43:38;30.60;53.70
43810;DHT22;29440;48.208;11.162;2023-06-14T06:46:04;30.30;52.30
43810;DHT22;29440;48.208;11.162;2023-06-14T06:48:29;30.70;52.40
43810;DHT22;29440;48.208;11.162;2023-06-14T06:50:55;30.70;51.30
43810;DHT22;29440;48.208;11.162;2023-06-14T06:53:21;30.70;50.30
43810;DHT22;29440;48.208;11.162;2023-06-14T06:55:46;30.50;51.70
43810;DHT22;29440;48.208;11.162;2023-06-14T06:58:13;29.90;50.00
43810;DHT22;29440;48.208;11.162;2023-06-14T07:00:40;29.40;51.30
43810;DHT22;29440;48.208;11.162;2023-06-14T07:03:06;28.90;52.10
43810;DHT22;29440;48.208;11.162;2023-06-14T07:05:31;28.60;54.30
43810;DHT22;29440;48.208;11.162;2023-06-14T07:07:57;28.70;52.40
43810;DHT22;29440;48.208;11.162;2023-06-14T07:10:23;28.70;54.80
43810;DHT22;29440;48.208;11.162;2023-06-14T07:12:50;28.80;52.80
43810;DHT22;29440;48.208;11.162;2023-06-14T07:15:15;29.10;52.70
43810;DHT22;29440;48.208;11.162;2023-06-14T07:17:41;29.20;52.20
43810;DHT22;29440;48.208;11.162;2023-06-14T07:20:08;28.90;52.70
43810;DHT22;29440;48.208;11.162;2023-06-14T07:22:40;28.60;52.00
43810;DHT22;29440;48.208;11.162;2023-06-14T07:25:09;28.60;53.00
43810;DHT22;29440;48.208;11.162;2023-06-14T07:27:37;28.70;52.70
43810;DHT22;29440;48.208;11.162;2023-06-14T07:30:03;28.80;53.00
43810;DHT22;29440;48.208;11.162;2023-06-14T07:32:29;28.30;54.00
43810;DHT22;29440;48.208;11.162;2023-06-14T07:34:55;27.80;54.20
43810;DHT22;29440;48.208;11.162;2023-06-14T07:37:20;27.70;54.80
43810;DHT22;29440;48.208;11.162;2023-06-14T07:39:46;27.30;55.40
43810;DHT22;29440;48.208;11.162;2023-06-14T07:42:12;26.90;55.10
43810;DHT22;29440;48.208;11.162;2023-06-14T07:44:37;26.40;55.20
43810;DHT22;29440;48.208;11.162;2023-06-14T07:47:03;26.00;56.10
43810;DHT22;29440;48.208;11.162;2023-06-14T07:49:29;25.50;57.40
43810;DHT22;29440;48.208;11.162;2023-06-14T07:51:55;25.30;57.70
43810;DHT22;29440;48.208;11.162;2023-06-14T07:54:20;24.90;57.80
43810;DHT22;29440;48.208;11.162;2023-06-14T07:56:50;24.40;58.90
43810;DHT22;29440;48.208;11.162;2023-06-14T07:59:16;24.10;59.40
43810;DHT22;29440;48.208;11.162;2023-06-14T08:01:41;24.10;60.60
43810;DHT22;29440;48.208;11.162;2023-06-14T08:04:12;23.70;59.90
43810;DHT22;29440;48.208;11.162;2023-06-14T08:06:38;23.50;60.70
43810;DHT22;29440;48.208;11.162;2023-06-14T08:09:04;23.30;62.40
43810;DHT22;29440;48.208;11.162;2023-06-14T08:11:30;23.20;61.60
43810;DHT22;29440;48.208;11.162;2023-06-14T08:13:56;23.00;61.60
43810;DHT22;29440;48.208;11.162;2023-06-14T08:16:22;23.00;65.40
43810;DHT22;29440;48.208;11.162;2023-06-14T08:18:48;22.90;63.60
43810;DHT22;29440;48.208;11.162;2023-06-14T08:21:14;23.00;60.00
43810;DHT22;29440;48.208;11.162;2023-06-14T08:23:43;22.90;61.90
43810;DHT22;29440;48.208;11.162;2023-06-14T08:26:09;22.80;61.40
43810;DHT22;29440;48.208;11.162;2023-06-14T08:28:35;22.70;63.90
43810;DHT22;29440;48.208;11.162;2023-06-14T08:31:01;22.70;61.60
43810;DHT22;29440;48.208;11.162;2023-06-14T08:33:27;22.70;62.40
43810;DHT22;29440;48.208;11.162;2023-06-14T08:35:53;22.70;62.30
43810;DHT22;29440;48.208;11.162;2023-06-14T08:38:19;22.80;62.10
43810;DHT22;29440;48.208;11.162;2023-06-14T08:40:48;22.70;60.80
43810;DHT22;29440;48.208;11.162;2023-06-14T08:43:15;22.70;62.10
43810;DHT22;29440;48.208;11.162;2023-06-14T08:45:41;22.70;61.30
43810;DHT22;29440;48.208;11.162;2023-06-14T08:48:07;22.80;60.80
43810;DHT22;29440;48.208;11.162;2023-06-14T08:50:34;22.80;61.50
43810;DHT22;29440;48.208;11.162;2023-06-14T08:53:02;23.10;58.90
43810;DHT22;29440;48.208;11.162;2023-06-14T08:55:29;23.00;59.60
43810;DHT22;29440;48.208;11.162;2023-06-14T08:57:57;23.30;58.60
43810;DHT22;29440;48.208;11.162;2023-06-14T09:00:25;23.30;58.00
43810;DHT22;29440;48.208;11.162;2023-06-14T09:02:53;23.20;58.30
43810;DHT22;29440;48.208;11.162;2023-06-14T09:05:24;23.30;58.20
43810;DHT22;29440;48.208;11.162;2023-06-14T09:07:50;23.40;57.40
43810;DHT22;29440;48.208;11.162;2023-06-14T09:10:16;23.40;57.20
43810;DHT22;29440;48.208;11.162;2023-06-14T09:12:42;23.60;60.80
43810;DHT22;29440;48.208;11.162;2023-06-14T09:15:09;23.60;58.80
43810;DHT22;29440;48.208;11.162;2023-06-14T09:17:35;23.70;58.30
43810;DHT22;29440;48.208;11.162;2023-06-14T09:20:05;23.90;57.20
43810;DHT22;29440;48.208;11.162;2023-06-14T09:22:32;23.80;56.00
43810;DHT22;29440;48.208;11.162;2023-06-14T09:24:58;23.80;56.20
43810;DHT22;29440;48.208;11.162;2023-06-14T09:27:28;23.80;56.30
43810;DHT22;29440;48.208;11.162;2023-06-14T09:29:54;23.90;56.50
43810;DHT22;29440;48.208;11.162;2023-06-14T09:32:21;23.90;54.30
43810;DHT22;29440;48.208;11.162;2023-06-14T09:34:46;24.00;56.60
43810;DHT22;29440;48.208;11.162;2023-06-14T09:37:12;23.90;55.90
43810;DHT22;29440;48.208;11.162;2023-06-14T09:39:50;23.70;55.90
43810;DHT22;29440;48.208;11.162;2023-06-14T09:42:17;23.70;56.50
43810;DHT22;29440;48.208;11.162;2023-06-14T09:44:48;23.80;56.70
43810;DHT22;29440;48.208;11.162;2023-06-14T09:47:18;23.90;55.30
43810;DHT22;29440;48.208;11.162;2023-06-14T09:49:44;23.90;55.40
43810;DHT22;29440;48.208;11.162;2023-06-14T09:52:17;24.00;56.60
43810;DHT22;29440;48.208;11.162;2023-06-14T09:54:44;24.10;57.30
43810;DHT22;29440;48.208;11.162;2023-06-14T09:57:21;24.00;56.30
43810;DHT22;29440;48.208;11.162;2023-06-14T09:59:48;24.00;55.90
43810;DHT22;29440;48.208;11.162;2023-06-14T10:02:28;24.30;55.30
43810;DHT22;29440;48.208;11.162;2023-06-14T10:07:35;24.40;56.00
43810;DHT22;29440;48.208;11.162;2023-06-14T10:10:01;24.30;56.60
43810;DHT22;29440;48.208;11.162;2023-06-14T10:12:26;24.30;56.30
43810;DHT22;29440;48.208;11.162;2023-06-14T10:14:53;24.30;56.40
43810;DHT22;29440;48.208;11.162;2023-06-14T10:20:33;24.40;55.20
43810;DHT22;29440;48.208;11.162;2023-06-14T10:23:21;24.60;56.10
43810;DHT22;29440;48.208;11.162;2023-06-14T10:25:56;24.70;56.60
43810;DHT22;29440;48.208;11.162;2023-06-14T10:28:22;24.70;56.50
43810;DHT22;29440;48.208;11.162;2023-06-14T10:31:10;24.70;56.80
43810;DHT22;29440;48.208;11.162;2023-06-14T10:33:48;24.40;55.30
43810;DHT22;29440;48.208;11.162;2023-06-14T10:36:30;24.20;56.00
43810;DHT22;29440;48.208;11.162;2023-06-14T10:41:35;24.00;58.00
43810;DHT22;29440;48.208;11.162;2023-06-14T10:46:48;24.10;58.10
43810;DHT22;29440;48.208;11.162;2023-06-14T10:49:18;24.20;58.00
43810;DHT22;29440;48.208;11.162;2023-06-14T10:51:50;24.30;57.30
43810;DHT22;29440;48.208;11.162;2023-06-14T10:54:17;24.40;56.50
43810;DHT22;29440;48.208;11.162;2023-06-14T10:56:50;24.40;59.80
43810;DHT22;29440;48.208;11.162;2023-06-14T10:59:16;24.70;58.00
43810;DHT22;29440;48.208;11.162;2023-06-14T11:04:50;24.70;56.30
43810;DHT22;29440;48.208;11.162;2023-06-14T11:10:38;25.00;55.90
43810;DHT22;29440;48.208;11.162;2023-06-14T11:13:04;25.00;55.30
43810;DHT22;29440;48.208;11.162;2023-06-14T11:15:31;24.80;54.90
43810;DHT22;29440;48.208;11.162;2023-06-14T11:17:57;24.90;54.80
43810;DHT22;29440;48.208;11.162;2023-06-14T11:20:27;24.80;54.60
43810;DHT22;29440;48.208;11.162;2023-06-14T11:22:53;24.80;54.80
43810;DHT22;29440;48.208;11.162;2023-06-14T11:25:19;24.80;52.90
43810;DHT22;29440;48.208;11.162;2023-06-14T11:27:46;24.80;53.60
43810;DHT22;29440;48.208;11.162;2023-06-14T11:30:13;24.80;55.20
43810;DHT22;29440;48.208;11.162;2023-06-14T11:32:39;24.80;54.60
43810;DHT22;29440;48.208;11.162;2023-06-14T11:35:05;24.80;54.10
43810;DHT22;29440;48.208;11.162;2023-06-14T11:37:31;24.60;53.00
43810;DHT22;29440;48.208;11.162;2023-06-14T11:40:03;24.50;55.40
43810;DHT22;29440;48.208;11.162;2023-06-14T11:42:37;24.60;54.00
43810;DHT22;29440;48.208;11.162;2023-06-14T11:45:03;24.70;53.80
43810;DHT22;29440;48.208;11.162;2023-06-14T11:47:34;24.70;54.20
43810;DHT22;29440;48.208;11.162;2023-06-14T11:50:01;24.70;54.10
43810;DHT22;29440;48.208;11.162;2023-06-14T11:52:27;24.70;54.90
43810;DHT22;29440;48.208;11.162;2023-06-14T11:54:53;24.80;54.20
43810;DHT22;29440;48.208;11.162;2023-06-14T11:57:19;24.90;55.00
43810;DHT22;29440;48.208;11.162;2023-06-14T11:59:45;24.90;55.50
43810;DHT22;29440;48.208;11.162;2023-06-14T12:02:15;24.90;53.80
43810;DHT22;29440;48.208;11.162;2023-06-14T12:04:42;25.00;53.80
43810;DHT22;29440;48.208;11.162;2023-06-14T12:07:15;24.90;53.70
43810;DHT22;29440;48.208;11.162;2023-06-14T12:10:03;25.00;53.80
43810;DHT22;29440;48.208;11.162;2023-06-14T12:12:28;25.00;53.30
43810;DHT22;29440;48.208;11.162;2023-06-14T12:14:56;25.00;53.70
43810;DHT22;29440;48.208;11.162;2023-06-14T12:17:21;25.00;54.20
43810;DHT22;29440;48.208;11.162;2023-06-14T12:19:49;25.00;54.30
43810;DHT22;29440;48.208;11.162;2023-06-14T12:22:16;25.10;53.00
43810;DHT22;29440;48.208;11.162;2023-06-14T12:24:45;25.20;52.70
43810;DHT22;29440;48.208;11.162;2023-06-14T12:27:12;25.40;53.20
43810;DHT22;29440;48.208;11.162;2023-06-14T12:29:41;25.50;53.20
43810;DHT22;29440;48.208;11.162;2023-06-14T12:32:09;25.40;52.60
43810;DHT22;29440;48.208;11.162;2023-06-14T12:34:34;25.30;54.00
43810;DHT22;29440;48.208;11.162;2023-06-14T12:37:01;25.20;53.70
43810;DHT22;29440;48.208;11.162;2023-06-14T12:39:26;25.40;53.20
43810;DHT22;29440;48.208;11.162;2023-06-14T12:41:53;25.50;54.10
43810;DHT22;29440;48.208;11.162;2023-06-14T12:44:19;25.40;53.40
43810;DHT22;29440;48.208;11.162;2023-06-14T12:46:45;25.50;54.10
43810;DHT22;29440;48.208;11.162;2023-06-14T12:49:11;25.50;52.50
43810;DHT22;29440;48.208;11.162;2023-06-14T12:51:38;25.70;53.00
43810;DHT22;29440;48.208;11.162;2023-06-14T12:54:04;25.60;52.10
43810;DHT22;29440;48.208;11.162;2023-06-14T12:56:29;25.70;52.80
43810;DHT22;29440;48.208;11.162;2023-06-14T12:58:55;25.80;53.10
43810;DHT22;29440;48.208;11.162;2023-06-14T13:01:21;25.90;51.30
43810;DHT22;29440;48.208;11.162;2023-06-14T13:03:47;25.80;51.40
43810;DHT22;29440;48.208;11.162;2023-06-14T13:06:12;25.80;50.90
43810;DHT22;29440;48.208;11.162;2023-06-14T13:08:38;25.90;50.30
43810;DHT22;29440;48.208;11.162;2023-06-14T13:11:04;25.90;51.50
43810;DHT22;29440;48.208;11.162;2023-06-14T13:13:29;26.00;50.80
43810;DHT22;29440;48.208;11.162;2023-06-14T13:15:55;26.00;49.60
43810;DHT22;29440;48.208;11.162;2023-06-14T13:18:20;25.80;50.30
43810;DHT22;29440;48.208;11.162;2023-06-14T13:20:46;25.80;50.90
43810;DHT22;29440;48.208;11.162;2023-06-14T13:23:12;25.80;51.10
43810;DHT22;29440;48.208;11.162;2023-06-14T13:25:39;25.50;51.60
43810;DHT22;29440;48.208;11.162;2023-06-14T13:28:05;25.40;51.70
43810;DHT22;29440;48.208;11.162;2023-06-14T13:30:32;24.90;52.50
43810;DHT22;29440;48.208;11.162;2023-06-14T13:32:57;24.60;51.80
43810;DHT22;29440;48.208;11.162;2023-06-14T13:35:24;24.40;52.40
43810;DHT22;29440;48.208;11.162;2023-06-14T13:37:50;24.10;53.00
43810;DHT22;29440;48.208;11.162;2023-06-14T13:40:15;24.00;53.20
43810;DHT22;29440;48.208;11.162;2023-06-14T13:42:41;23.90;54.10
43810;DHT22;29440;48.208;11.162;2023-06-14T13:45:07;23.90;54.50
43810;DHT22;29440;48.208;11.162;2023-06-14T13:47:33;24.20;55.20
43810;DHT22;29440;48.208;11.162;2023-06-14T13:49:58;24.40;53.50
43810;DHT22;29440;48.208;11.162;2023-06-14T13:52:25;24.60;54.30
43810;DHT22;29440;48.208;11.162;2023-06-14T13:54:50;24.80;52.90
43810;DHT22;29440;48.208;11.162;2023-06-14T13:57:16;25.00;53.10
43810;DHT22;29440;48.208;11.162;2023-06-14T13:59:42;25.00;52.70
43810;DHT22;29440;48.208;11.162;2023-06-14T14:02:12;25.20;53.70
43810;DHT22;29440;48.208;11.162;2023-06-14T14:04:38;25.40;51.90
43810;DHT22;29440;48.208;11.162;2023-06-14T14:07:05;25.20;51.20
43810;DHT22;29440;48.208;11.162;2023-06-14T14:09:34;24.90;52.30
43810;DHT22;29440;48.208;11.162;2023-06-14T14:12:03;24.70;51.90
43810;DHT22;29440;48.208;11.162;2023-06-14T14:14:31;24.60;52.40
43810;DHT22;29440;48.208;11.162;2023-06-14T14:16:57;24.50;52.90
43810;DHT22;29440;48.208;11.162;2023-06-14T14:19:23;24.50;51.70
43810;DHT22;29440;48.208;11.162;2023-06-14T14:21:49;24.40;52.10
43810;DHT22;29440;48.208;11.162;2023-06-14T14:24:15;24.10;54.00
43810;DHT22;29440;48.208;11.162;2023-06-14T14:26:41;24.10;54.00
43810;DHT22;29440;48.208;11.162;2023-06-14T14:29:07;23.90;54.80
43810;DHT22;29440;48.208;11.162;2023-06-14T14:31:33;24.00;54.00
43810;DHT22;29440;48.208;11.162;2023-06-14T14:33:59;24.00;53.90
43810;DHT22;29440;48.208;11.162;2023-06-14T14:36:25;24.10;53.50
43810;DHT22;29440;48.208;11.162;2023-06-14T14:38:50;24.00;54.20
43810;DHT22;29440;48.208;11.162;2023-06-14T14:41:17;23.90;54.70
43810;DHT22;29440;48.208;11.162;2023-06-14T14:43:42;23.80;53.90
43810;DHT22;29440;48.208;11.162;2023-06-14T14:46:08;23.80;54.70
43810;DHT22;29440;48.208;11.162;2023-06-14T14:48:33;23.90;54.10
43810;DHT22;29440;48.208;11.162;2023-06-14T14:50:59;23.70;54.20
43810;DHT22;29440;48.208;11.162;2023-06-14T14:53:24;23.80;54.60
43810;DHT22;29440;48.208;11.162;2023-06-14T14:55:50;23.90;54.00
43810;DHT22;29440;48.208;11.162;2023-06-14T14:58:15;24.10;54.30
43810;DHT22;29440;48.208;11.162;2023-06-14T15:00:44;24.30;53.60
43810;DHT22;29440;48.208;11.162;2023-06-14T15:03:09;24.40;54.70
43810;DHT22;29440;48.208;11.162;2023-06-14T15:05:35;24.60;54.10
43810;DHT22;29440;48.208;11.162;2023-06-14T15:08:02;24.80;55.00
43810;DHT22;29440;48.208;11.162;2023-06-14T15:10:28;24.80;54.70
43810;DHT22;29440;48.208;11.162;2023-06-14T15:12:53;24.90;53.60
43810;DHT22;29440;48.208;11.162;2023-06-14T15:15:22;24.90;54.80
43810;DHT22;29440;48.208;11.162;2023-06-14T15:17:48;25.00;54.30
43810;DHT22;29440;48.208;11.162;2023-06-14T15:20:13;25.00;53.00
43810;DHT22;29440;48.208;11.162;2023-06-14T15:22:40;25.00;53.60
43810;DHT22;29440;48.208;11.162;2023-06-14T15:25:06;24.90;53.40
43810;DHT22;29440;48.208;11.162;2023-06-14T15:27:32;24.90;53.50
43810;DHT22;29440;48.208;11.162;2023-06-14T15:29:57;25.00;54.20
43810;DHT22;29440;48.208;11.162;2023-06-14T15:32:23;24.80;53.20
43810;DHT22;29440;48.208;11.162;2023-06-14T15:34:48;25.00;52.20
43810;DHT22;29440;48.208;11.162;2023-06-14T15:37:14;25.20;52.90